createdAt,value
2018-08-10T00:00:06.762Z,100799.38
2018-08-10T00:02:34.979Z,100802.98
2018-08-10T00:05:02.648Z,100818.42
2018-08-10T00:07:30.572Z,100800.41
2018-08-10T00:09:58.500Z,100804.77
2018-08-10T00:12:26.185Z,100792.94
2018-08-10T00:14:54.307Z,100812.41
2018-08-10T00:17:21.952Z,100818.65
2018-08-10T00:19:49.578Z,100821.86
2018-08-10T00:22:17.514Z,100839.16
2018-08-10T00:24:45.798Z,100854.68
2018-08-10T00:27:13.729Z,100851.16
2018-08-10T00:29:41.378Z,100847.70
2018-08-10T00:32:09.386Z,100845.16
2018-08-10T00:34:37.009Z,100870.45
2018-08-10T00:37:05.053Z,100870.97
2018-08-10T00:39:32.996Z,100894.51
2018-08-10T00:42:00.641Z,100907.45
2018-08-10T00:44:28.303Z,100899.11
2018-08-10T00:46:56.501Z,100925.30
2018-08-10T00:49:24.518Z,100929.79
2018-08-10T00:51:52.802Z,100918.80
2018-08-10T00:54:20.456Z,100931.28
2018-08-10T00:56:48.316Z,100927.83
2018-08-10T00:59:15.940Z,100880.27
2018-08-10T01:01:44.180Z,100924.94
2018-08-10T01:04:12.276Z,100921.97
2018-08-10T01:06:40.512Z,100956.96
2018-08-10T01:09:10.222Z,100931.48
2018-08-10T01:11:37.967Z,100965.11
2018-08-10T01:14:06.093Z,100946.19
2018-08-10T01:16:33.761Z,100941.34
2018-08-10T01:19:01.540Z,100956.46
2018-08-10T01:21:29.650Z,100945.09
2018-08-10T01:23:57.323Z,100955.75
2018-08-10T01:26:25.245Z,100947.00
2018-08-10T01:28:52.994Z,100971.00
2018-08-10T01:31:21.338Z,100947.69
2018-08-10T01:33:49.083Z,100965.45
2018-08-10T01:36:16.755Z,100958.96
2018-08-10T01:38:44.372Z,100947.56
2018-08-10T01:41:12.026Z,100967.59
2018-08-10T01:43:39.905Z,100943.44
2018-08-10T01:46:07.602Z,100962.42
2018-08-10T01:48:35.249Z,100961.23
2018-08-10T01:51:02.908Z,100977.12
2018-08-10T01:53:30.555Z,100972.31
2018-08-10T01:55:58.552Z,100979.51
2018-08-10T01:58:26.185Z,100993.26
2018-08-10T02:00:54.140Z,100988.48
2018-08-10T02:03:21.840Z,101000.00
2018-08-10T02:05:49.781Z,101009.87
2018-08-10T02:08:17.416Z,101006.42
2018-08-10T02:10:45.086Z,101015.78
2018-08-10T02:13:12.736Z,101022.91
2018-08-10T02:15:40.775Z,101041.05
2018-08-10T02:18:08.425Z,101035.76
2018-08-10T02:20:36.511Z,101041.98
2018-08-10T02:23:04.176Z,101041.17
2018-08-10T02:25:31.847Z,101058.59
2018-08-10T02:27:59.541Z,101050.23
2018-08-10T02:30:27.501Z,101048.91
2018-08-10T02:32:55.841Z,101046.36
2018-08-10T02:35:24.076Z,101050.84
2018-08-10T02:37:52.032Z,101049.52
2018-08-10T02:40:21.812Z,101057.06
2018-08-10T02:42:50.178Z,101050.06
2018-08-10T02:45:18.451Z,101060.65
2018-08-10T02:47:46.763Z,101069.48
2018-08-10T02:50:15.374Z,101069.09
2018-08-10T02:52:43.642Z,101080.61
2018-08-10T02:55:11.793Z,101078.90
2018-08-10T02:57:40.450Z,101073.28
2018-08-10T03:00:10.506Z,101091.31
2018-08-10T03:02:38.802Z,101071.08
2018-08-10T03:05:07.544Z,101097.54
2018-08-10T03:07:35.238Z,101083.92
2018-08-10T03:10:03.424Z,101085.75
2018-08-10T03:12:31.055Z,101094.23
2018-08-10T03:14:58.926Z,101088.55
2018-08-10T03:17:26.965Z,101090.77
2018-08-10T03:19:55.037Z,101092.64
2018-08-10T03:22:22.653Z,101123.51
2018-08-10T03:24:51.140Z,101156.13
2018-08-10T03:27:19.335Z,101115.63
2018-08-10T03:29:47.000Z,101122.78
2018-08-10T03:32:14.641Z,101112.52
2018-08-10T03:34:42.277Z,101143.55
2018-08-10T03:37:09.975Z,101134.35
2018-08-10T03:39:37.596Z,101144.99
2018-08-10T03:42:05.515Z,101162.63
2018-08-10T03:44:33.172Z,101164.38
2018-08-10T03:47:00.814Z,101169.73
2018-08-10T03:49:28.808Z,101186.98
2018-08-10T03:51:56.448Z,101180.81
2018-08-10T03:54:24.097Z,101192.33
2018-08-10T03:56:51.705Z,101197.67
2018-08-10T03:59:19.380Z,101224.17
2018-08-10T04:01:47.258Z,101235.23
2018-08-10T04:04:14.961Z,101239.15
2018-08-10T04:06:42.676Z,101244.55
2018-08-10T04:09:11.782Z,101252.09
2018-08-10T04:11:40.225Z,101249.89
2018-08-10T04:14:07.910Z,101274.28
2018-08-10T04:16:35.629Z,101285.36
2018-08-10T04:19:03.592Z,101303.05
2018-08-10T04:21:31.614Z,101299.58
2018-08-10T04:23:59.361Z,101308.05
2018-08-10T04:26:27.000Z,101324.02
2018-08-10T04:28:54.649Z,101321.91
2018-08-10T04:31:22.531Z,101323.33
2018-08-10T04:33:50.275Z,101336.20
2018-08-10T04:36:17.956Z,101336.73
2018-08-10T04:38:45.634Z,101338.55
2018-08-10T04:41:13.326Z,101349.98
2018-08-10T04:43:41.013Z,101354.44
2018-08-10T04:46:08.897Z,101365.99
2018-08-10T04:48:36.595Z,101369.51
2018-08-10T04:51:32.853Z,101374.67
2018-08-10T04:54:00.552Z,101388.00
2018-08-10T04:56:28.168Z,101398.44
2018-08-10T04:58:56.555Z,101398.27
2018-08-10T05:01:24.862Z,101407.89
2018-08-10T05:03:52.493Z,101413.91
2018-08-10T05:06:20.129Z,101415.97
2018-08-10T05:08:48.013Z,101428.09
2018-08-10T05:11:15.959Z,101434.38
2018-08-10T05:13:43.653Z,101435.33
2018-08-10T05:16:11.337Z,101437.16
2018-08-10T05:18:38.962Z,101438.48
2018-08-10T05:21:06.643Z,101443.48
2018-08-10T05:23:34.794Z,101447.13
2018-08-10T05:26:02.506Z,101453.44
2018-08-10T05:28:30.250Z,101457.55
2018-08-10T05:30:57.889Z,101464.70
2018-08-10T05:33:25.605Z,101462.62
2018-08-10T05:35:53.629Z,101475.16
2018-08-10T05:38:21.276Z,101485.00
2018-08-10T05:40:49.196Z,101498.89
2018-08-10T05:43:17.141Z,101503.77
2018-08-10T05:45:45.085Z,101502.20
2018-08-10T05:48:12.772Z,101524.47
2018-08-10T05:50:40.737Z,101530.95
2018-08-10T05:53:08.785Z,101543.20
2018-08-10T05:55:36.499Z,101549.36
2018-08-10T05:58:04.242Z,101559.88
2018-08-10T06:00:31.968Z,101558.00
2018-08-10T06:02:59.674Z,101559.28
2018-08-10T06:05:27.589Z,101577.17
2018-08-10T06:07:55.213Z,101561.59
2018-08-10T06:10:23.466Z,101577.24
2018-08-10T06:12:51.436Z,101551.95
2018-08-10T06:15:19.332Z,101586.66
2018-08-10T06:17:47.292Z,101593.30
2018-08-10T06:20:14.924Z,101603.45
2018-08-10T06:22:42.702Z,101600.86
2018-08-10T06:25:10.431Z,101608.00
2018-08-10T06:27:38.131Z,101613.72
2018-08-10T06:30:08.201Z,101644.48
2018-08-10T06:32:35.827Z,101628.56
2018-08-10T06:35:03.591Z,101624.98
2018-08-10T06:37:31.271Z,101634.95
2018-08-10T06:39:59.217Z,101632.09
2018-08-10T06:42:26.895Z,101640.67
2018-08-10T06:44:55.041Z,101651.16
2018-08-10T06:47:23.003Z,101645.15
2018-08-10T06:49:50.787Z,101654.53
2018-08-10T06:52:18.432Z,101659.48
2018-08-10T06:54:46.091Z,101672.80
2018-08-10T06:57:13.994Z,101667.52
2018-08-10T06:59:42.055Z,101678.88
2018-08-10T07:02:09.754Z,101676.98
2018-08-10T07:04:37.692Z,101681.23
2018-08-10T07:07:06.369Z,101681.53
2018-08-10T07:09:34.034Z,101689.27
2018-08-10T07:12:01.759Z,101683.80
2018-08-10T07:14:30.460Z,101691.22
2018-08-10T07:16:58.445Z,101704.46
2018-08-10T07:19:26.119Z,101694.37
2018-08-10T07:21:53.808Z,101705.74
2018-08-10T07:24:21.733Z,101713.23
2018-08-10T07:26:49.367Z,101712.34
2018-08-10T07:29:17.271Z,101720.97
2018-08-10T07:31:45.627Z,101723.98
2018-08-10T07:34:13.717Z,101725.34
2018-08-10T07:36:41.408Z,101743.42
2018-08-10T07:39:10.575Z,101759.78
2018-08-10T07:41:38.305Z,101737.81
2018-08-10T07:44:06.135Z,101745.55
2018-08-10T07:46:33.818Z,101752.41
2018-08-10T07:49:01.882Z,101754.91
2018-08-10T07:51:29.925Z,101785.41
2018-08-10T07:53:57.812Z,101765.33
2018-08-10T07:56:25.436Z,101780.08
2018-08-10T07:58:53.431Z,101757.80
2018-08-10T08:01:21.070Z,101765.75
2018-08-10T08:03:49.173Z,101755.59
2018-08-10T08:06:16.901Z,101769.47
2018-08-10T08:08:44.597Z,101779.83
2018-08-10T08:11:12.537Z,101791.61
2018-08-10T08:13:40.494Z,101792.81
2018-08-10T08:16:08.805Z,101794.72
2018-08-10T08:18:36.818Z,101832.02
2018-08-10T08:21:10.525Z,101856.09
2018-08-10T08:23:38.472Z,101858.05
2018-08-10T08:26:06.190Z,101871.42
2018-08-10T08:28:34.630Z,101864.03
2018-08-10T08:31:03.517Z,101863.56
2018-08-10T08:33:31.236Z,101858.19
2018-08-10T08:36:00.177Z,101858.05
2018-08-10T08:38:39.095Z,101862.73
2018-08-10T08:41:08.353Z,101862.60
2018-08-10T08:45:54.941Z,101863.83
2018-08-10T08:48:22.878Z,101870.45
2018-08-10T08:50:52.173Z,101881.63
2018-08-10T08:53:19.849Z,101874.11
2018-08-10T08:55:53.290Z,101875.84
2018-08-10T08:58:21.633Z,101874.39
2018-08-10T09:00:49.254Z,101876.39
2018-08-10T09:03:29.202Z,101885.91
2018-08-10T09:05:57.296Z,101892.52
2018-08-10T09:08:25.533Z,101896.14
2018-08-10T09:10:54.274Z,101886.17
2018-08-10T09:13:22.291Z,101892.84
2018-08-10T09:15:49.909Z,101895.93
2018-08-10T09:18:17.607Z,101895.05
2018-08-10T09:20:45.562Z,101901.52
2018-08-10T09:23:13.272Z,101914.19
2018-08-10T09:25:41.571Z,101913.00
2018-08-10T09:28:09.606Z,101905.20
2018-08-10T09:30:37.221Z,101914.98
2018-08-10T09:33:05.231Z,101913.73
2018-08-10T09:35:32.931Z,101921.27
2018-08-10T09:38:00.618Z,101915.23
2018-08-10T09:40:28.621Z,101932.88
2018-08-10T09:42:56.564Z,101948.41
2018-08-10T09:45:24.717Z,101953.77
2018-08-10T09:47:52.581Z,101938.52
2018-08-10T09:50:20.676Z,101938.52
2018-08-10T09:52:56.961Z,101931.42
2018-08-10T09:55:40.283Z,101941.36
2018-08-10T09:58:11.440Z,101933.91
2018-08-10T10:00:45.111Z,101938.22
2018-08-10T10:03:16.260Z,101935.48
2018-08-10T10:05:44.280Z,101934.61
2018-08-10T10:08:12.190Z,101941.11
2018-08-10T10:10:39.922Z,101945.55
2018-08-10T10:13:07.885Z,101938.85
2018-08-10T10:15:35.558Z,101947.12
2018-08-10T10:18:03.667Z,101935.58
2018-08-10T10:20:31.268Z,101935.36
2018-08-10T10:22:58.929Z,101937.02
2018-08-10T10:25:26.880Z,101932.02
2018-08-10T10:27:54.496Z,101936.97
2018-08-10T10:30:22.177Z,101942.09
2018-08-10T10:32:49.814Z,101950.02
2018-08-10T10:35:17.482Z,101947.81
2018-08-10T10:37:45.237Z,101943.98
2018-08-10T10:40:12.861Z,101941.58
2018-08-10T10:42:40.730Z,101948.19
2018-08-10T10:45:11.688Z,101950.73
2018-08-10T10:47:39.781Z,101957.30
2018-08-10T10:50:08.530Z,101961.67
2018-08-10T10:52:37.113Z,101980.92
2018-08-10T10:55:05.597Z,101963.50
2018-08-10T10:57:33.241Z,101976.62
2018-08-10T11:00:01.754Z,101968.72
2018-08-10T11:02:29.419Z,101973.64
2018-08-10T11:04:57.387Z,101968.05
2018-08-10T11:07:25.397Z,101959.00
2018-08-10T11:09:53.387Z,101965.33
2018-08-10T11:12:21.264Z,101972.01
2018-08-10T11:14:48.930Z,101957.78
2018-08-10T11:17:16.561Z,101970.80
2018-08-10T11:19:44.795Z,101965.09
2018-08-10T11:22:12.434Z,101976.22
2018-08-10T11:24:40.072Z,101982.34
2018-08-10T11:27:07.714Z,101979.47
2018-08-10T11:29:35.440Z,101980.14
2018-08-10T11:32:03.138Z,101971.16
2018-08-10T11:34:30.774Z,101981.40
2018-08-10T11:36:58.454Z,101974.96
2018-08-10T11:39:26.361Z,101971.27
2018-08-10T11:41:54.269Z,101978.52
2018-08-10T11:44:22.738Z,101986.92
2018-08-10T11:46:51.248Z,101995.67
2018-08-10T11:49:18.844Z,101988.86
2018-08-10T11:51:46.453Z,101987.73
2018-08-10T11:54:14.377Z,101999.87
2018-08-10T11:56:42.105Z,101988.69
2018-08-10T11:59:09.784Z,101990.78
2018-08-10T12:01:37.442Z,101992.51
2018-08-10T12:04:05.473Z,101998.27
2018-08-10T12:06:33.701Z,101994.34
2018-08-10T12:09:02.617Z,101988.72
2018-08-10T12:11:30.355Z,102003.84
2018-08-10T12:13:58.244Z,101993.33
2018-08-10T12:16:25.842Z,101996.05
2018-08-10T12:18:53.694Z,101996.48
2018-08-10T12:21:21.584Z,101998.59
2018-08-10T12:23:49.645Z,102003.33
2018-08-10T12:26:17.598Z,102000.55
2018-08-10T12:28:45.216Z,101995.16
2018-08-10T12:31:13.145Z,101993.35
2018-08-10T12:33:40.790Z,101990.16
2018-08-10T12:36:09.360Z,101983.11
2018-08-10T12:38:38.054Z,101978.08
2018-08-10T12:41:05.785Z,101975.11
2018-08-10T12:43:33.430Z,101979.33
2018-08-10T12:46:01.141Z,101969.14
2018-08-10T12:48:29.108Z,101971.75
2018-08-10T12:50:57.342Z,101968.67
2018-08-10T12:53:25.048Z,101965.02
2018-08-10T12:55:53.123Z,101962.22
2018-08-10T12:58:20.783Z,101966.16
2018-08-10T13:00:48.383Z,101960.59
2018-08-10T13:03:16.084Z,101967.94
2018-08-10T13:05:43.722Z,101968.34
2018-08-10T13:08:11.370Z,101979.37
2018-08-10T13:10:39.038Z,101975.25
2018-08-10T13:13:08.074Z,101983.67
2018-08-10T13:15:35.668Z,101980.18
2018-08-10T13:18:03.489Z,101975.77
2018-08-10T13:20:31.458Z,101995.14
2018-08-10T13:22:59.648Z,101977.89
2018-08-10T13:25:27.375Z,102007.86
2018-08-10T13:27:55.325Z,102014.60
2018-08-10T13:30:23.060Z,101992.13
2018-08-10T13:32:51.067Z,101997.47
2018-08-10T13:35:18.754Z,102015.96
2018-08-10T13:37:46.336Z,101996.43
2018-08-10T13:40:14.298Z,102000.28
2018-08-10T13:42:42.234Z,101988.29
2018-08-10T13:45:11.723Z,101996.55
2018-08-10T13:47:39.361Z,101998.16
2018-08-10T13:50:08.470Z,101996.67
2018-08-10T13:52:36.156Z,102011.28
2018-08-10T13:55:04.025Z,101994.30
2018-08-10T13:57:31.718Z,101996.55
2018-08-10T13:59:59.352Z,101996.95
2018-08-10T14:02:27.006Z,101994.87
2018-08-10T14:04:54.975Z,102002.50
2018-08-10T14:07:22.940Z,101990.09
2018-08-10T14:09:50.638Z,101983.47
2018-08-10T14:12:18.364Z,101999.71
2018-08-10T14:14:46.378Z,101998.25
2018-08-10T14:17:14.094Z,102012.11
2018-08-10T14:19:42.062Z,102057.66
2018-08-10T14:22:09.689Z,102089.89
2018-08-10T14:24:37.349Z,102106.77
2018-08-10T14:27:05.125Z,102099.33
2018-08-10T14:29:32.772Z,102105.51
2018-08-10T14:32:01.069Z,102115.28
2018-08-10T14:34:29.709Z,102117.48
2018-08-10T14:36:57.365Z,102110.39
2018-08-10T14:39:25.605Z,102099.73
2018-08-10T14:41:53.621Z,102095.45
2018-08-10T14:44:21.565Z,102090.70
2018-08-10T14:46:49.206Z,102081.34
2018-08-10T14:49:17.198Z,102085.40
2018-08-10T14:51:44.844Z,102080.11
2018-08-10T14:54:12.809Z,102082.36
2018-08-10T14:56:40.832Z,102070.14
2018-08-10T14:59:08.478Z,102069.05
2018-08-10T15:01:36.118Z,102063.86
2018-08-10T15:04:03.805Z,102068.44
2018-08-10T15:06:31.487Z,102060.22
2018-08-10T15:08:59.259Z,102052.55
2018-08-10T15:11:26.916Z,102050.06
2018-08-10T15:13:54.577Z,102049.55
2018-08-10T15:16:22.231Z,102042.58
2018-08-10T15:18:50.082Z,102045.70
2018-08-10T15:21:17.735Z,102044.16
2018-08-10T15:23:45.663Z,102041.47
2018-08-10T15:26:13.672Z,102037.45
2018-08-10T15:28:41.450Z,102044.28
2018-08-10T15:31:09.517Z,102040.91
2018-08-10T15:33:37.389Z,102037.52
2018-08-10T15:36:05.733Z,102038.92
2018-08-10T15:38:33.414Z,102033.30
2018-08-10T15:41:01.082Z,102030.73
2018-08-10T15:43:28.813Z,102034.75
2018-08-10T15:45:56.511Z,102032.14
2018-08-10T15:48:24.179Z,102030.41
2018-08-10T15:50:51.934Z,102034.38
2018-08-10T15:53:19.566Z,102027.72
2018-08-10T15:55:47.457Z,102030.70
2018-08-10T15:58:15.095Z,102036.28
2018-08-10T16:00:43.117Z,102038.25
2018-08-10T16:03:11.126Z,102031.31
2018-08-10T16:05:40.847Z,102037.81
2018-08-10T16:08:08.757Z,102037.09
2018-08-10T16:10:36.982Z,102034.61
2018-08-10T16:13:05.169Z,102036.53
2018-08-10T16:15:33.095Z,102034.88
2018-08-10T16:18:01.882Z,102038.41
2018-08-10T16:20:30.156Z,102041.91
2018-08-10T16:22:58.490Z,102036.13
2018-08-10T16:25:26.563Z,102044.35
2018-08-10T16:27:55.426Z,102042.83
2018-08-10T16:30:25.173Z,102036.94
2018-08-10T16:32:53.573Z,102050.63
2018-08-10T16:35:22.378Z,102040.59
2018-08-10T16:37:50.919Z,102039.82
2018-08-10T16:40:20.013Z,102003.73
2018-08-10T16:42:48.682Z,102039.09
2018-08-10T16:45:16.842Z,102042.19
2018-08-10T16:47:45.764Z,102037.33
2018-08-10T16:50:15.839Z,102033.36
2018-08-10T16:52:44.720Z,102033.80
2018-08-10T16:55:15.320Z,102035.16
2018-08-10T16:57:44.235Z,102040.45
2018-08-10T17:00:14.794Z,102032.03
2018-08-10T17:02:43.049Z,102038.17
2018-08-10T17:05:11.290Z,102039.34
2018-08-10T17:07:40.510Z,102037.09
2018-08-10T17:10:08.519Z,102027.30
2018-08-10T17:12:37.785Z,102032.97
2018-08-10T17:15:08.273Z,102040.31
2018-08-10T17:17:35.919Z,102033.41
2018-08-10T17:20:04.745Z,102032.59
2018-08-10T17:22:32.686Z,102034.87
2018-08-10T17:25:00.341Z,102025.81
2018-08-10T17:27:28.011Z,102025.40
2018-08-10T17:29:55.666Z,102024.89
2018-08-10T17:32:23.729Z,102025.52
2018-08-10T17:34:51.509Z,102037.59
2018-08-10T17:37:19.133Z,102031.14
2018-08-10T17:39:47.137Z,102032.19
2018-08-10T17:42:14.866Z,102023.37
2018-08-10T17:44:42.596Z,102021.39
2018-08-10T17:47:10.813Z,102005.09
2018-08-10T17:49:38.906Z,102016.53
2018-08-10T17:52:06.618Z,102010.31
2018-08-10T17:54:34.311Z,102013.70
2018-08-10T17:57:02.260Z,102012.50
2018-08-10T17:59:30.209Z,102017.13
2018-08-10T18:01:57.872Z,102025.79
2018-08-10T18:04:25.772Z,102013.84
2018-08-10T18:06:53.441Z,102010.73
2018-08-10T18:09:21.112Z,102014.77
2018-08-10T18:11:49.134Z,102018.01
2018-08-10T18:14:16.756Z,102020.69
2018-08-10T18:16:44.457Z,102021.05
2018-08-10T18:19:12.187Z,102012.39
2018-08-10T18:21:39.791Z,102018.49
2018-08-10T18:24:07.510Z,102013.94
2018-08-10T18:26:35.147Z,102014.59
2018-08-10T18:29:02.831Z,102014.80
2018-08-10T18:31:30.762Z,102011.41
2018-08-10T18:33:58.403Z,102013.75
2018-08-10T18:36:26.092Z,102012.55
2018-08-10T18:38:54.157Z,102007.81
2018-08-10T18:41:21.911Z,102012.80
2018-08-10T18:43:49.548Z,102012.48
2018-08-10T18:46:17.211Z,102008.23
2018-08-10T18:48:45.434Z,102004.42
2018-08-10T18:51:13.081Z,101998.80
2018-08-10T18:53:40.788Z,101999.80
2018-08-10T18:56:08.707Z,101999.89
2018-08-10T18:58:36.659Z,101999.16
2018-08-10T19:01:04.333Z,101995.27
2018-08-10T19:03:32.456Z,101993.59
2018-08-10T19:06:00.393Z,101989.73
2018-08-10T19:08:28.053Z,101988.12
2018-08-10T19:10:55.771Z,101981.14
2018-08-10T19:13:23.493Z,101982.98
2018-08-10T19:15:51.414Z,101983.92
2018-08-10T19:18:19.123Z,101983.55
2018-08-10T19:20:46.784Z,101996.43
2018-08-10T19:23:15.125Z,101992.53
2018-08-10T19:25:43.326Z,101994.81
2018-08-10T19:28:11.016Z,101998.39
2018-08-10T19:30:38.931Z,101995.38
2018-08-10T19:33:07.197Z,101991.45
2018-08-10T19:35:34.841Z,101990.23
2018-08-10T19:38:02.556Z,101984.61
2018-08-10T19:40:30.585Z,101993.44
2018-08-10T19:42:58.847Z,101989.98
2018-08-10T19:45:26.522Z,101983.00
2018-08-10T19:47:54.214Z,101986.09
2018-08-10T19:50:22.924Z,101986.60
2018-08-10T19:52:50.985Z,101987.52
2018-08-10T19:55:18.953Z,101983.59
2018-08-10T19:57:46.954Z,101982.78
2018-08-10T20:00:16.318Z,101981.05
2018-08-10T20:02:46.254Z,101981.13
2018-08-10T20:05:14.178Z,101981.20
2018-08-10T20:07:41.903Z,101972.83
2018-08-10T20:10:10.860Z,101977.27
2018-08-10T20:12:38.551Z,101977.75
2018-08-10T20:15:11.110Z,101971.24
2018-08-10T20:17:38.936Z,101961.55
2018-08-10T20:20:07.961Z,101963.82
2018-08-10T20:22:35.663Z,101957.25
2018-08-10T20:25:03.684Z,101955.11
2018-08-10T20:27:31.722Z,101948.09
2018-08-10T20:29:59.672Z,101952.50
2018-08-10T20:32:27.389Z,101957.83
2018-08-10T20:34:55.135Z,101951.73
2018-08-10T20:37:22.794Z,101953.97
2018-08-10T20:39:50.766Z,101956.66
2018-08-10T20:42:18.440Z,101952.72
2018-08-10T20:44:46.166Z,101947.88
2018-08-10T20:47:13.854Z,101950.11
2018-08-10T20:49:41.773Z,101946.19
2018-08-10T20:52:09.574Z,101936.92
2018-08-10T20:54:37.505Z,101939.17
2018-08-10T20:57:05.295Z,101936.12
2018-08-10T20:59:33.017Z,101927.78
2018-08-10T21:02:00.876Z,101929.55
2018-08-10T21:04:29.189Z,101933.10
2018-08-10T21:06:57.229Z,101927.41
2018-08-10T21:09:25.261Z,101918.63
2018-08-10T21:11:53.142Z,101917.31
2018-08-10T21:14:20.799Z,101918.23
2018-08-10T21:16:48.483Z,101915.21
2018-08-10T21:19:16.595Z,101912.16
2018-08-10T21:21:44.515Z,101914.81
2018-08-10T21:24:12.441Z,101911.72
2018-08-10T21:26:40.198Z,101910.41
2018-08-10T21:29:08.087Z,101910.00
2018-08-10T21:31:36.349Z,101909.11
2018-08-10T21:34:04.085Z,101905.66
2018-08-10T21:36:32.033Z,101902.61
2018-08-10T21:38:59.694Z,101899.09
2018-08-10T21:41:27.387Z,101898.17
2018-08-10T21:43:55.320Z,101889.88
2018-08-10T21:46:22.996Z,101891.19
2018-08-10T21:48:51.261Z,101882.86
2018-08-10T21:51:19.262Z,101881.13
2018-08-10T21:53:46.935Z,101882.05
2018-08-10T21:56:14.625Z,101878.52
2018-08-10T21:58:42.629Z,101878.08
2018-08-10T22:01:10.342Z,101875.91
2018-08-10T22:03:38.090Z,101874.15
2018-08-10T22:06:06.331Z,101873.27
2018-08-10T22:08:34.080Z,101871.95
2018-08-10T22:11:01.740Z,101871.98
2018-08-10T22:13:36.309Z,101868.05
2018-08-10T22:16:09.539Z,101863.20
2018-08-10T22:18:42.796Z,101860.59
2018-08-10T22:21:10.481Z,101857.98
2018-08-10T22:23:38.226Z,101853.62
2018-08-10T22:26:06.820Z,101858.44
2018-08-10T22:28:34.496Z,101846.17
2018-08-10T22:31:02.189Z,101844.37
2018-08-10T22:33:30.523Z,101833.83
2018-08-10T22:35:58.186Z,101822.56
2018-08-10T22:38:26.101Z,101836.91
2018-08-10T22:40:54.094Z,101832.95
2018-08-10T22:43:21.984Z,101826.81
2018-08-10T22:45:49.677Z,101828.14
2018-08-10T22:48:17.366Z,101818.92
2018-08-10T22:50:45.047Z,101821.05
2018-08-10T22:53:12.989Z,101817.56
2018-08-10T22:55:40.925Z,101815.36
2018-08-10T22:58:08.619Z,101815.80
2018-08-10T23:00:36.550Z,101805.30
2018-08-10T23:03:04.571Z,101806.14
2018-08-10T23:05:32.662Z,101804.83
2018-08-10T23:08:01.004Z,101806.19
2018-08-10T23:10:28.674Z,101791.64
2018-08-10T23:12:56.397Z,101791.24
2018-08-10T23:15:24.722Z,101789.88
2018-08-10T23:17:52.389Z,101789.00
2018-08-10T23:20:20.070Z,101781.95
2018-08-10T23:22:48.411Z,101772.26
2018-08-10T23:25:16.691Z,101767.86
2018-08-10T23:27:44.719Z,101767.41
2018-08-10T23:30:13.655Z,101762.57
2018-08-10T23:32:41.485Z,101761.25
2018-08-10T23:35:09.436Z,101760.36
2018-08-10T23:37:37.608Z,101756.84
2018-08-10T23:40:08.105Z,101748.07
2018-08-10T23:42:35.952Z,101709.00
2018-08-10T23:45:04.574Z,101737.45
2018-08-10T23:47:32.296Z,101733.49
2018-08-10T23:50:00.546Z,101724.67
2018-08-10T23:52:28.215Z,101721.59
2018-08-10T23:54:56.748Z,101716.31
2018-08-10T23:57:24.698Z,101713.23
2018-08-10T23:59:52.370Z,101714.51
